Clayton, Delaware
Current Conditions -  °F | °C
As of 10:58 PM on Sunday 19 Oct 2014 (Local Time) from KDOV Reporting Station
Clear Clear  
Wind Chill: 42°   Ceiling: Unl
Heat Index: 45°   Visibility: 10mi
Dew Point: 37°   Wind: 5mph
Humidity: 74%   Direction: 200°SSW
Pressure: 30.07"   Gusts: NA
Location:  39.29°N, 75.63°W
Report Text: KDOV 200258Z AUTO 20004KT 10SM CLR 07/03 A3007 RMK AO2 SLP186 T00700027 52009
Loading
Personal Weather Stations






























Interactive Weather Map
Tropical Storm Tracking
New forecast layout! Learn more

10-Day Weather Forecast

Advertisements
Track Severe Weather on mobile